Flight Track Log - Related Links

Times and Time Zones

All times are in EDT time to prevent confusion due to time zone crossing. See the N621MM flight status page for this flight to view local times or setup timezone preferences in your user account.

Time Position Orientation Groundspeed Altitude Reporting Facility
EDT Latitude Longitude Course Direction KTS MPH feet Rate Location/Type
Wed 01:48:17 PM 43.9236 -92.4564 132° Southeast 130 150 4,600  Level Minneapolis Center
Wed 01:49:19 PM 43.8958 -92.4172 135° Southeast 132 152 5,500 871 Climbing Minneapolis Center
Wed 01:50:21 PM 43.8661 -92.3822 140° Southeast 140 161 6,400 832 Climbing Minneapolis Center
Wed 01:51:00 PM 43.6945 -92.1750 133° Southeast  Level FlightAware Approximate
Wed 01:51:36 PM 43.8322 -92.3317 133° Southeast 145 167 7,400  Level Minneapolis Center
Wed 01:52:00 PM 43.6592 -92.1220 133° Southeast  Level FlightAware Approximate
Wed 01:52:38 PM 43.8036 -92.2894 133° Southeast 141 162 8,000  Level Minneapolis Center
Wed 01:53:40 PM 43.7736 -92.2453 133° Southeast 155 178 8,500 484 Climbing Minneapolis Center
Wed 01:54:42 PM 43.7392 -92.1958 134° Southeast 167 192 9,000 242 Climbing Minneapolis Center
Wed 01:55:44 PM 43.7064 -92.1494 134° Southeast 171 197 9,000 48 Level Minneapolis Center
Wed 01:56:46 PM 43.6653 -92.0894 133° Southeast 197 227 9,100  Climbing Minneapolis Center
Wed 01:57:48 PM 43.6272 -92.0342 134° Southeast 203 234 9,000  Descending Minneapolis Center
Wed 01:58:50 PM 43.5858 -91.9758 134° Southeast 199 229 9,100  Climbing Minneapolis Center
Wed 01:59:52 PM 43.5439 -91.9156 134° Southeast 202 232 9,000  Descending Minneapolis Center
Wed 02:00:55 PM 43.5050 -91.8617 135° Southeast 201 231 9,100 48 Climbing Minneapolis Center
Wed 02:01:57 PM 43.4631 -91.8017 134° Southeast 203 234 9,100  Level Minneapolis Center
Wed 02:02:59 PM 43.4250 -91.7469 134° Southeast 201 231 9,100  Level Minneapolis Center
Wed 02:04:01 PM 43.3844 -91.6889 134° Southeast 197 227 9,100  Level Minneapolis Center
Wed 02:05:03 PM 43.3461 -91.6356 135° Southeast 199 229 9,100  Level Minneapolis Center
Wed 02:06:05 PM 43.3075 -91.5800 134° Southeast 201 231 9,100  Level Minneapolis Center
Wed 02:07:07 PM 43.2700 -91.5256 133° Southeast 200 230 9,100  Level Minneapolis Center
Wed 02:08:21 PM 43.2442 -91.4603 118° Southeast 199 229 9,100  Level Minneapolis Center
Wed 02:09:24 PM 43.2056 -91.3697 120° Southeast 197 227 9,100  Level Minneapolis Center
Wed 02:10:05 PM 43.1878 -91.3322 123° Southeast 200 230 9,100  Level Chicago Center
Wed 02:11:07 PM 43.1589 -91.2683 122° Southeast 199 229 9,100  Level Chicago Center
Wed 02:12:09 PM 43.1314 -91.2036 120° Southeast 198 228 9,100  Level Chicago Center
Wed 02:13:11 PM 43.0981 -91.1258 120° Southeast 198 228 9,100  Level Chicago Center
Wed 02:14:13 PM 43.0694 -91.0636 122° Southeast 199 229 9,100  Level Chicago Center
Wed 02:15:15 PM 43.0414 -90.9989 121° Southeast 199 229 9,100  Level Chicago Center
Wed 02:16:17 PM 43.0131 -90.9333 121° Southeast 198 228 9,100  Level Chicago Center
Wed 02:17:19 PM 42.9844 -90.8703 122° Southeast 197 227 9,100  Level Chicago Center
Wed 02:18:21 PM 42.9508 -90.7922 120° Southeast 199 229 9,100  Level Chicago Center
Wed 02:19:23 PM 42.9217 -90.7281 122° Southeast 200 230 9,100  Level Chicago Center
Wed 02:20:25 PM 42.8928 -90.6631 121° Southeast 201 231 9,100  Level Chicago Center
Wed 02:21:27 PM 42.8639 -90.5994 122° Southeast 200 230 9,100  Level Chicago Center
Wed 02:22:29 PM 42.8358 -90.5353 121° Southeast 200 230 9,100  Level Chicago Center
Wed 02:23:31 PM 42.8017 -90.4594 122° Southeast 198 228 9,100  Level Chicago Center
Wed 02:24:33 PM 42.7717 -90.3950 122° Southeast 201 231 9,100  Level Chicago Center
Wed 02:25:35 PM 42.7431 -90.3308 121° Southeast 200 230 9,100  Level Chicago Center
Wed 02:26:37 PM 42.7142 -90.2675 122° Southeast 199 229 9,100  Level Chicago Center
Wed 02:27:39 PM 42.6856 -90.2022 121° Southeast 201 231 9,100  Level Chicago Center
Wed 02:28:41 PM 42.6514 -90.1256 121° Southeast 202 232 9,100  Level Chicago Center
Wed 02:29:43 PM 42.6206 -90.0614 123° Southeast 203 234 9,100  Level Chicago Center
Wed 02:30:45 PM 42.5919 -89.9981 122° Southeast 200 230 9,100  Level Chicago Center
Wed 02:31:47 PM 42.5625 -89.9333 122° Southeast 203 234 9,100  Level Chicago Center
Wed 02:32:50 PM 42.5283 -89.8597 122° Southeast 198 228 9,100  Level Chicago Center
Wed 02:33:52 PM 42.4997 -89.7956 121° Southeast 199 229 9,100  Level Chicago Center
Wed 02:34:54 PM 42.4697 -89.7317 122° Southeast 200 230 9,100  Level Chicago Center
Wed 02:35:56 PM 42.4408 -89.6681 122° Southeast 199 229 9,100  Level Chicago Center
Wed 02:36:58 PM 42.4114 -89.6044 122° Southeast 200 230 9,100  Level Chicago Center
Wed 02:38:00 PM 42.3775 -89.5311 122° Southeast 198 228 9,100  Level Chicago Center
Wed 02:39:02 PM 42.3483 -89.4678 122° Southeast 198 228 9,100  Level Chicago Center
Wed 02:40:05 PM 42.3183 -89.4061 123° Southeast 197 227 9,100  Level Chicago Center
Wed 02:41:06 PM 42.2892 -89.3417 121° Southeast 198 228 9,100 -98 Level Chicago Center
Wed 02:42:08 PM 42.2586 -89.2786 123° Southeast 199 229 8,900 -339 Descending Chicago Center
Wed 02:43:10 PM 42.2103 -89.2169 137° Southeast 208 239 8,400 -480 Descending Chicago Center
Wed 02:44:13 PM 42.1669 -89.1628 137° Southeast 213 245 7,900 -480 Descending Chicago Center
Wed 02:45:15 PM 42.1244 -89.1036 134° Southeast 212 244 7,400 -484 Descending Chicago Center
Wed 02:46:17 PM 42.0850 -89.0472 133° Southeast 207 238 6,900 -435 Descending Chicago Center
Wed 02:47:19 PM 42.0478 -88.9981 136° Southeast 202 232 6,500 -484 Descending Chicago Center
Wed 02:48:21 PM 42.0017 -88.9347 134° Southeast 199 229 5,900 -532 Descending Chicago Center
Wed 02:49:23 PM 41.9714 -88.8742 124° Southeast 197 227 5,400 -387 Descending Chicago Center
Wed 02:50:25 PM 41.9442 -88.8117 120° Southeast 197 227 5,100 -145 Descending Chicago Center
Wed 02:51:27 PM 41.9164 -88.7572 124° Southeast 189 217 5,100  Level Chicago Center
Wed 02:52:29 PM 41.8903 -88.7006 122° Southeast 183 211 5,100 -290 Level Chicago Center
Wed 02:53:31 PM 41.8578 -88.6306 122° Southeast 183 211 4,500 -484 Descending Chicago Center
Wed 02:54:33 PM 41.8300 -88.5678 121° Southeast 190 219 4,100 -192 Descending Chicago Center
Wed 02:55:36 PM 41.8017 -88.5089 123° Southeast 191 220 4,100 -48 Level Chicago Center
Wed 02:56:38 PM 41.7767 -88.4533 121° Southeast 184 212 4,000 -242 Descending Chicago Center
Wed 02:57:40 PM 41.7506 -88.3978 122° Southeast 180 207 3,600 -387 Descending Chicago Center
Wed 02:59:13 PM 41.7000 -88.3000 125° Southeast 185 213 3,000 -288 Descending Chicago TRACON
Wed 02:59:45 PM 41.6889 -88.2717 118° Southeast 184 212 3,000  Level Chicago Center
Wed 03:00:47 PM 41.6631 -88.2172 122° Southeast 180 207 3,000 -336 Level Chicago Center
Wed 03:01:50 PM 41.6372 -88.1625 122° Southeast 177 204 2,300 -576 Descending Chicago Center
Wed 03:02:52 PM 41.6000 -88.1308 148° Southeast 175 201 1,800 -435 Descending Chicago Center
Wed 03:03:54 PM 41.5689 -88.1153 159° South 147 169 1,400 -435 Descending Chicago Center
Wed 03:04:56 PM 41.5928 -88.1008 24° Northeast 115 132 900 -290 Descending Chicago Center
Wed 03:05:58 PM 41.6136 -88.1019 358° North 108 124 800 -97 Descending Chicago Center

Login

Don't have an account? Register now (free) for customized features, flight alerts, and more!